Time;durP1;ratioP1;P1;durP2;ratioP2;P2;SDS_P1;SDS_P2;PMS_P1;PMS_P2;Temp;Humidity;BMP_temperature;BMP_pressure;BME280_temperature;BME280_humidity;BME280_pressure;Samples;Min_cycle;Max_cycle;Signal;HPM_P1;HPM_P2
2022/11/28 00:02:06;;;;;;;9.37;7.53;;;;;;;6.97;100.00;100841.47;5009425;28;20061;-88
2022/11/28 00:04:32;;;;;;;8.90;7.00;;;;;;;6.96;100.00;100844.34;5012507;28;20033;-87
2022/11/28 00:06:57;;;;;;;10.90;7.63;;;;;;;6.93;100.00;100837.47;5011271;28;20041;-87
2022/11/28 00:09:23;;;;;;;9.60;7.70;;;;;;;6.97;100.00;100846.03;5012707;28;20038;-89
2022/11/28 00:11:49;;;;;;;11.50;8.30;;;;;;;6.99;100.00;100833.19;5017457;28;20382;-85
2022/11/28 00:14:15;;;;;;;10.37;8.10;;;;;;;7.03;100.00;100839.88;5011874;28;20114;-89
2022/11/28 00:16:41;;;;;;;12.33;8.10;;;;;;;7.08;100.00;100840.97;5012870;28;20118;-87
2022/11/28 00:19:07;;;;;;;10.60;7.53;;;;;;;7.10;100.00;100824.66;5019504;28;20108;-89
2022/11/28 00:21:33;;;;;;;10.30;7.77;;;;;;;7.16;100.00;100823.88;5023942;28;20454;-86
2022/11/28 00:24:00;;;;;;;9.53;6.93;;;;;;;7.17;100.00;100832.81;5009015;28;20026;-86
2022/11/28 00:26:28;;;;;;;9.33;7.03;;;;;;;7.23;100.00;100824.78;5010632;28;20041;-86
2022/11/28 00:28:56;;;;;;;10.80;7.10;;;;;;;7.26;100.00;100839.72;5009902;28;20362;-86
2022/11/28 00:31:41;;;;;;;9.20;6.90;;;;;;;7.25;100.00;100825.44;5016612;28;20412;-88
2022/11/28 00:34:10;;;;;;;9.40;7.50;;;;;;;7.20;100.00;100813.56;5014363;28;20128;-89
2022/11/28 00:36:35;;;;;;;8.80;6.67;;;;;;;7.25;100.00;100827.31;5011190;28;20060;-85
2022/11/28 00:39:00;;;;;;;9.17;6.77;;;;;;;7.15;100.00;100803.31;5007635;28;20079;-86
2022/11/28 00:41:29;;;;;;;11.77;7.37;;;;;;;7.23;100.00;100819.38;5010397;28;20644;-85
2022/11/28 00:43:55;;;;;;;13.30;7.33;;;;;;;7.27;100.00;100817.16;5014818;28;20033;-86
2022/11/28 00:46:21;;;;;;;7.77;6.63;;;;;;;7.30;100.00;100807.84;5009702;28;20041;-89
2022/11/28 00:48:48;;;;;;;11.67;7.33;;;;;;;7.32;100.00;100816.59;5009917;28;20048;-86
2022/11/28 00:51:16;;;;;;;9.73;6.60;;;;;;;7.34;100.00;100815.34;5014106;28;20025;-86
2022/11/28 00:53:42;;;;;;;12.07;6.90;;;;;;;7.36;100.00;100818.69;5010303;28;20034;-85
2022/11/28 00:56:11;;;;;;;10.10;6.40;;;;;;;7.39;100.00;100802.13;5020381;28;20044;-86
2022/11/28 00:58:37;;;;;;;11.40;6.40;;;;;;;7.38;100.00;100794.25;5008033;28;20458;-87
2022/11/28 01:01:14;;;;;;;9.13;6.27;;;;;;;7.47;100.00;100811.16;5010056;28;20045;-86
2022/11/28 01:03:40;;;;;;;7.70;5.70;;;;;;;7.52;100.00;100808.69;5017236;28;20040;-87
2022/11/28 01:06:07;;;;;;;9.00;5.67;;;;;;;7.51;100.00;100799.78;5009205;28;20065;-85
2022/11/28 01:08:33;;;;;;;8.37;5.70;;;;;;;7.51;100.00;100802.47;5025408;28;20034;-85
2022/11/28 01:10:58;;;;;;;7.27;5.53;;;;;;;7.61;100.00;100804.84;5022471;28;20038;-86
2022/11/28 01:13:24;;;;;;;8.60;5.83;;;;;;;7.54;100.00;100794.00;5012989;28;20428;-87
2022/11/28 01:15:49;;;;;;;6.77;5.37;;;;;;;7.64;100.00;100798.22;5010794;28;20373;-85
2022/11/28 01:18:15;;;;;;;7.60;5.40;;;;;;;7.67;100.00;100798.69;5009490;28;20050;-88
2022/11/28 01:20:40;;;;;;;6.67;5.40;;;;;;;7.69;100.00;100811.97;5011954;28;20036;-87
2022/11/28 01:23:06;;;;;;;11.80;5.53;;;;;;;7.74;100.00;100801.44;5010805;28;20029;-85
2022/11/28 01:25:31;;;;;;;8.30;5.30;;;;;;;7.76;100.00;100802.91;5009738;28;20037;-88
2022/11/28 01:27:56;;;;;;;8.40;5.70;;;;;;;7.78;100.00;100794.63;5014232;28;20029;-89
2022/11/28 01:30:22;;;;;;;6.67;5.13;;;;;;;7.84;100.00;100804.63;5009085;28;20041;-90
2022/11/28 01:32:47;;;;;;;7.27;5.20;;;;;;;7.58;100.00;100792.56;5010105;28;20630;-90
2022/11/28 01:35:12;;;;;;;9.47;5.73;;;;;;;7.55;100.00;100798.38;5009810;28;20691;-90
2022/11/28 01:37:38;;;;;;;9.60;5.67;;;;;;;7.50;100.00;100798.09;5014307;28;20025;-89
2022/11/28 01:40:04;;;;;;;9.27;5.80;;;;;;;7.52;100.00;100797.91;5008101;28;20032;-87
2022/11/28 01:42:29;;;;;;;8.80;6.07;;;;;;;7.52;100.00;100806.84;5009784;28;20470;-89
2022/11/28 01:45:07;;;;;;;9.20;6.37;;;;;;;7.48;100.00;100805.56;5012673;28;20033;-85
2022/11/28 01:47:33;;;;;;;9.07;6.00;;;;;;;7.40;100.00;100797.59;5016550;28;20018;-88
2022/11/28 01:49:59;;;;;;;7.83;5.53;;;;;;;7.42;100.00;100782.91;5012968;28;20045;-88
2022/11/28 01:52:25;;;;;;;8.27;6.20;;;;;;;7.45;100.00;100805.91;5010058;28;20103;-88
2022/11/28 01:54:56;;;;;;;7.97;5.90;;;;;;;7.40;100.00;100806.50;5014764;28;20386;-88
2022/11/28 01:57:24;;;;;;;9.53;6.10;;;;;;;7.34;100.00;100799.19;5013981;28;20021;-87
2022/11/28 02:00:00;;;;;;;7.73;5.90;;;;;;;7.30;100.00;100802.47;5013367;28;20021;-88
2022/11/28 02:02:33;;;;;;;8.53;6.03;;;;;;;7.17;100.00;100795.09;5010759;28;20034;-88
2022/11/28 02:04:59;;;;;;;8.17;6.17;;;;;;;7.13;100.00;100791.91;5019825;28;20018;-88
2022/11/28 02:07:25;;;;;;;10.37;6.50;;;;;;;6.99;100.00;100796.34;5010036;28;20304;-88
2022/11/28 02:09:51;;;;;;;7.00;5.80;;;;;;;7.06;100.00;100799.09;5008178;28;20474;-88
2022/11/28 02:12:58;;;;;;;8.40;6.00;;;;;;;7.06;100.00;100797.22;5008621;28;20099;-88
2022/11/28 02:15:38;;;;;;;9.13;6.20;;;;;;;6.97;100.00;100790.28;5005016;28;20116;-88
2022/11/28 02:18:32;;;;;;;8.70;7.20;;;;;;;6.96;100.00;100793.16;5006679;28;20525;-85
2022/11/28 02:21:17;;;;;;;8.53;6.37;;;;;;;6.96;100.00;100791.31;5016828;28;20037;-88
2022/11/28 02:24:22;;;;;;;10.82;6.40;;;;;;;6.97;100.00;100781.38;5007866;28;20446;-86
2022/11/28 02:27:12;;;;;;;11.20;6.65;;;;;;;6.95;100.00;100786.97;5008123;28;20080;-88
2022/11/28 02:29:54;;;;;;;8.77;6.30;;;;;;;6.89;100.00;100772.38;5009077;28;20048;-90
2022/11/28 02:32:43;;;;;;;9.27;6.17;;;;;;;7.00;100.00;100786.38;5009246;28;20033;-90
2022/11/28 02:35:32;;;;;;;8.70;6.03;;;;;;;6.91;100.00;100778.41;5007897;28;20033;-86
2022/11/28 02:38:15;;;;;;;9.17;6.33;;;;;;;6.92;100.00;100781.94;5007682;28;20037;-85
2022/11/28 02:40:59;;;;;;;7.53;5.97;;;;;;;6.95;100.00;100786.09;5018160;28;20120;-85
2022/11/28 02:43:51;;;;;;;9.10;6.05;;;;;;;6.88;100.00;100773.41;5011135;28;20033;-89
2022/11/28 02:46:27;;;;;;;8.43;5.70;;;;;;;6.90;100.00;100776.72;5010776;28;20025;-89
2022/11/28 02:49:15;;;;;;;8.07;5.63;;;;;;;6.95;100.00;100772.63;5014228;28;20072;-88
2022/11/28 02:51:47;;;;;;;7.90;5.50;;;;;;;6.92;100.00;100780.09;5026957;28;20021;-91
2022/11/28 02:54:17;;;;;;;6.77;5.27;;;;;;;6.86;100.00;100780.84;5015505;28;20115;-90
2022/11/28 02:56:48;;;;;;;8.07;5.43;;;;;;;6.77;100.00;100773.88;5022096;28;20132;-89
2022/11/28 02:59:31;;;;;;;7.90;5.80;;;;;;;6.81;100.00;100764.41;5013597;28;20042;-88
2022/11/28 03:01:58;;;;;;;7.37;5.00;;;;;;;6.81;100.00;100769.78;5013481;28;20024;-87
2022/11/28 03:04:38;;;;;;;9.87;5.90;;;;;;;6.84;100.00;100765.88;5021909;28;20358;-88
2022/11/28 03:07:42;;;;;;;8.87;5.67;;;;;;;6.79;100.00;100768.34;5014559;28;20030;-89
2022/11/28 03:10:22;;;;;;;7.73;5.60;;;;;;;6.75;100.00;100746.31;5013739;28;20486;-87
2022/11/28 03:12:54;;;;;;;10.77;5.57;;;;;;;6.73;100.00;100756.44;5012349;28;20034;-87
2022/11/28 03:15:27;;;;;;;7.83;5.53;;;;;;;6.70;100.00;100757.63;5011841;28;20072;-87
2022/11/28 03:18:06;;;;;;;8.67;6.20;;;;;;;6.71;100.00;100758.50;5028954;28;20026;-87
2022/11/28 03:20:38;;;;;;;8.87;6.07;;;;;;;6.75;100.00;100762.47;5013361;28;20025;-87
2022/11/28 03:23:06;;;;;;;8.83;6.20;;;;;;;6.74;100.00;100761.63;5012541;28;20042;-90
2022/11/28 03:25:54;;;;;;;8.90;6.97;;;;;;;6.69;100.00;100758.69;5025840;28;20064;-87
2022/11/28 03:28:32;;;;;;;9.83;6.80;;;;;;;6.74;100.00;100758.94;5011029;28;20037;-87
2022/11/28 03:31:03;;;;;;;10.63;6.90;;;;;;;6.72;100.00;100765.56;5011265;28;20025;-87
2022/11/28 03:33:37;;;;;;;11.83;6.67;;;;;;;6.74;100.00;100761.63;5014275;28;20052;-88
2022/11/28 03:36:09;;;;;;;9.70;6.80;;;;;;;6.78;100.00;100754.00;5009452;28;20041;-87
2022/11/28 03:38:43;;;;;;;11.00;6.70;;;;;;;6.72;100.00;100744.84;5014151;28;20053;-87
2022/11/28 03:41:26;;;;;;;11.30;7.23;;;;;;;6.74;100.00;100756.25;5026968;28;20450;-87
2022/11/28 03:43:56;;;;;;;10.43;6.50;;;;;;;6.76;100.00;100756.06;5026102;28;20032;-88
2022/11/28 03:46:25;;;;;;;8.40;6.60;;;;;;;6.69;100.00;100747.91;5014269;28;20048;-89
2022/11/28 03:48:55;;;;;;;9.80;6.00;;;;;;;6.74;100.00;100755.41;5013832;28;20463;-89
2022/11/28 03:51:26;;;;;;;8.67;6.20;;;;;;;6.73;100.00;100756.44;5010529;28;20600;-89
2022/11/28 03:54:10;;;;;;;8.83;6.13;;;;;;;6.78;100.00;100753.19;5010948;28;20426;-88
2022/11/28 03:57:00;;;;;;;7.60;5.70;;;;;;;6.69;100.00;100747.91;5011810;28;20376;-88
2022/11/28 03:59:33;;;;;;;8.57;6.40;;;;;;;6.64;100.00;100741.44;5020283;28;20044;-87
2022/11/28 04:02:13;;;;;;;9.00;6.30;;;;;;;6.73;100.00;100753.75;5013445;28;20386;-89
2022/11/28 04:04:59;;;;;;;8.80;6.00;;;;;;;6.75;100.00;100757.91;5016400;28;20064;-86
2022/11/28 04:07:30;;;;;;;8.27;6.07;;;;;;;6.70;100.00;100746.03;5012640;28;20052;-90
2022/11/28 04:10:05;;;;;;;9.80;6.60;;;;;;;6.72;100.00;100744.00;5013532;28;20108;-89
2022/11/28 04:12:33;;;;;;;;;;;;;;;6.78;100.00;100758.56;5011010;28;20022;-89
2022/11/28 04:15:15;;;;;;;9.10;6.50;;;;;;;6.71;100.00;100753.94;5013090;28;19925;-89
2022/11/28 04:17:46;;;;;;;9.37;6.33;;;;;;;6.70;100.00;100749.56;5010426;28;20034;-89
2022/11/28 04:20:35;;;;;;;8.60;6.00;;;;;;;6.83;100.00;100756.16;5011854;28;20032;-90
2022/11/28 04:23:08;;;;;;;9.77;6.30;;;;;;;6.78;100.00;100751.31;5014510;28;20022;-92
2022/11/28 04:25:37;;;;;;;12.20;6.63;;;;;;;6.76;100.00;100756.91;5014217;28;20483;-89
2022/11/28 04:28:08;;;;;;;8.67;6.30;;;;;;;6.75;100.00;100749.00;5011699;28;20075;-92
2022/11/28 04:30:36;;;;;;;9.57;6.67;;;;;;;6.73;100.00;100756.44;5020205;28;20029;-90
2022/11/28 04:33:08;;;;;;;8.17;6.30;;;;;;;6.72;100.00;100746.72;5010602;28;20374;-89
2022/11/28 04:35:38;;;;;;;7.37;6.07;;;;;;;6.68;100.00;100761.56;5010273;28;20049;-92
2022/11/28 04:38:06;;;;;;;8.03;6.20;;;;;;;6.61;100.00;100749.88;5012379;28;20019;-90
2022/11/28 04:40:37;;;;;;;8.90;6.60;;;;;;;6.61;100.00;100749.88;5006907;28;20050;-94
2022/11/28 04:43:12;;;;;;;8.73;7.30;;;;;;;6.65;100.00;100754.69;5009586;28;20041;-90
2022/11/28 04:45:45;;;;;;;8.50;7.07;;;;;;;6.64;100.00;100760.28;5009089;28;20144;-92
2022/11/28 04:48:11;;;;;;;9.43;6.57;;;;;;;6.65;100.00;100760.09;5012433;28;20030;-90
2022/11/28 04:50:46;;;;;;;8.83;6.43;;;;;;;6.64;100.00;100757.59;5013229;28;20026;-91
2022/11/28 04:53:19;;;;;;;7.43;6.30;;;;;;;6.66;100.00;100759.03;5012482;28;20108;-93
2022/11/28 04:55:49;;;;;;;10.27;7.23;;;;;;;6.57;100.00;100752.94;5010913;28;20049;-95
2022/11/28 04:58:20;;;;;;;9.53;7.00;;;;;;;6.65;100.00;100757.41;5008692;28;20473;-92
2022/11/28 05:00:48;;;;;;;9.93;6.83;;;;;;;6.49;100.00;100734.19;5009551;28;20022;-93
2022/11/28 05:03:14;;;;;;;10.43;7.03;;;;;;;6.67;100.00;100752.63;5010279;28;20025;-92
2022/11/28 05:05:48;;;;;;;9.63;6.93;;;;;;;6.65;100.00;100757.41;5008075;28;20034;-92
2022/11/28 05:08:14;;;;;;;7.90;6.68;;;;;;;6.67;100.00;100755.34;5011859;28;20377;-92
2022/11/28 05:10:40;;;;;;;8.30;7.17;;;;;;;6.61;100.00;100766.00;5031904;28;20120;-91
2022/11/28 05:13:05;;;;;;;8.63;7.03;;;;;;;6.59;100.00;100763.50;5011542;28;20095;-93
2022/11/28 05:15:30;;;;;;;9.43;7.17;;;;;;;6.56;100.00;100766.59;5012279;28;20034;-93
2022/11/28 05:17:56;;;;;;;8.63;6.67;;;;;;;6.63;100.00;100772.06;5009391;28;20653;-91
2022/11/28 05:20:22;;;;;;;10.83;7.20;;;;;;;6.63;100.00;100767.50;5009912;28;20101;-91
2022/11/28 05:22:47;;;;;;;8.00;7.20;;;;;;;6.65;100.00;100761.94;5010257;28;20029;-91
2022/11/28 05:25:13;;;;;;;10.27;7.07;;;;;;;6.66;100.00;100767.13;5011497;28;20037;-90
2022/11/28 05:27:38;;;;;;;8.00;7.20;;;;;;;6.61;100.00;100772.25;5018161;28;20021;-93
2022/11/28 05:30:05;;;;;;;8.47;6.80;;;;;;;6.66;100.00;100779.75;5012812;28;20116;-92
2022/11/28 05:32:31;;;;;;;9.20;7.10;;;;;;;6.66;100.00;100777.06;5010013;28;20113;-90
2022/11/28 05:34:57;;;;;;;10.30;7.40;;;;;;;6.58;100.00;100773.47;5011473;28;20045;-90
2022/11/28 05:37:24;;;;;;;9.20;6.80;;;;;;;6.64;100.00;100771.03;5009133;28;20036;-92
2022/11/28 05:39:49;;;;;;;9.57;7.40;;;;;;;6.63;100.00;100778.28;5010595;28;20088;-89
2022/11/28 05:42:15;;;;;;;8.30;7.30;;;;;;;6.65;100.00;100778.06;5009062;28;20042;-91
2022/11/28 05:44:40;;;;;;;7.60;6.80;;;;;;;6.70;100.00;100781.06;5009453;28;20128;-91
2022/11/28 05:47:05;;;;;;;8.97;7.70;;;;;;;6.64;100.00;100784.50;5009946;28;20026;-89
2022/11/28 05:49:31;;;;;;;9.87;8.60;;;;;;;6.65;100.00;100781.63;5008993;28;20037;-90
2022/11/28 05:51:56;;;;;;;8.90;7.90;;;;;;;6.63;100.00;100772.88;5009984;28;20065;-91
2022/11/28 05:54:21;;;;;;;8.67;7.40;;;;;;;6.67;100.00;100776.03;5024122;28;20057;-93
2022/11/28 05:56:47;;;;;;;9.63;8.63;;;;;;;6.63;100.00;100786.34;5015793;28;20048;-91
2022/11/28 05:59:12;;;;;;;11.63;8.63;;;;;;;6.64;100.00;100781.81;5009116;28;20034;-93
2022/11/28 06:01:38;;;;;;;10.77;8.50;;;;;;;6.65;100.00;100775.38;5014644;28;20052;-94
2022/11/28 06:04:03;;;;;;;10.57;9.03;;;;;;;6.64;100.00;100776.44;5008720;28;20036;-92
2022/11/28 06:06:31;;;;;;;12.23;9.23;;;;;;;6.65;100.00;100773.53;5012755;28;20030;-89
2022/11/28 06:08:57;;;;;;;10.33;9.27;;;;;;;6.61;100.00;100771.41;5010968;28;20449;-89
2022/11/28 06:11:24;;;;;;;11.23;10.00;;;;;;;6.62;100.00;100778.47;5010766;28;20093;-90
2022/11/28 06:13:49;;;;;;;10.27;9.17;;;;;;;6.62;100.00;100767.69;5012736;28;20022;-91
2022/11/28 06:16:17;;;;;;;11.63;10.43;;;;;;;6.58;100.00;100768.06;5017581;28;20029;-89
2022/11/28 06:18:43;;;;;;;11.60;10.40;;;;;;;6.62;100.00;100770.38;5016439;28;20108;-91
2022/11/28 06:21:11;;;;;;;12.03;9.77;;;;;;;6.61;100.00;100784.84;5016154;28;20051;-91
2022/11/28 06:23:37;;;;;;;10.27;9.17;;;;;;;6.65;100.00;100783.47;5016534;28;20454;-90
2022/11/28 06:26:05;;;;;;;14.67;10.80;;;;;;;6.56;100.00;100775.50;5017094;28;20033;-92
2022/11/28 06:28:30;;;;;;;12.20;10.67;;;;;;;6.54;100.00;100780.25;5020554;28;20025;-89
2022/11/28 06:30:56;;;;;;;13.47;11.57;;;;;;;6.60;100.00;100786.72;5015014;28;20033;-92
2022/11/28 06:33:21;;;;;;;12.83;11.17;;;;;;;6.47;100.00;100757.75;5014670;28;20068;-91
2022/11/28 06:35:46;;;;;;;13.30;11.93;;;;;;;6.55;100.00;100781.88;5021459;28;20037;-92
2022/11/28 06:38:12;;;;;;;14.57;11.87;;;;;;;6.57;100.00;100793.31;5022872;28;20434;-92
2022/11/28 06:40:38;;;;;;;13.63;12.17;;;;;;;6.57;100.00;100795.19;4985998;28;20041;-92
2022/11/28 06:43:05;;;;;;;14.17;12.67;;;;;;;6.50;100.00;100784.31;5014603;28;20030;-90
2022/11/28 06:45:32;;;;;;;15.03;12.87;;;;;;;6.61;100.00;100798.31;5002682;28;20044;-89
2022/11/28 06:47:57;;;;;;;14.43;12.93;;;;;;;6.62;100.00;100800.81;5016146;28;20420;-88
2022/11/28 06:50:23;;;;;;;15.37;13.70;;;;;;;6.62;100.00;100798.13;5014739;28;20026;-90
2022/11/28 06:52:48;;;;;;;14.50;12.73;;;;;;;6.59;100.00;100791.28;5015409;28;20037;-90
2022/11/28 06:55:13;;;;;;;15.20;13.63;;;;;;;6.65;100.00;100792.41;5019369;28;20104;-92
2022/11/28 06:57:39;;;;;;;15.07;13.43;;;;;;;6.67;100.00;100806.50;5021951;28;20127;-93
2022/11/28 07:00:05;;;;;;;17.80;14.50;;;;;;;6.62;100.00;100792.75;5021497;28;20033;-94
2022/11/28 07:02:31;;;;;;;15.53;13.93;;;;;;;6.58;100.00;100795.00;5017710;28;20064;-92
2022/11/28 07:04:56;;;;;;;15.97;13.83;;;;;;;6.62;100.00;100790.06;5013231;28;20599;-91
2022/11/28 07:07:21;;;;;;;17.03;15.23;;;;;;;6.70;100.00;100803.41;5014789;28;20092;-90
2022/11/28 07:09:47;;;;;;;16.03;14.33;;;;;;;6.69;100.00;100796.38;5015929;28;20041;-91
2022/11/28 07:12:12;;;;;;;16.50;14.70;;;;;;;6.71;100.00;100793.50;5011495;28;20048;-90
2022/11/28 07:14:38;;;;;;;17.23;14.60;;;;;;;6.75;100.00;100794.78;5014955;28;20038;-91
2022/11/28 07:17:03;;;;;;;16.70;14.57;;;;;;;6.68;100.00;100793.88;5015336;28;20128;-90
2022/11/28 07:19:28;;;;;;;17.70;15.13;;;;;;;6.71;100.00;100804.28;5016255;28;20064;-92
2022/11/28 07:21:54;;;;;;;18.70;15.37;;;;;;;6.74;100.00;100802.00;5016068;28;20042;-92
2022/11/28 07:24:19;;;;;;;19.00;16.10;;;;;;;6.77;100.00;100803.50;5014329;28;20119;-90
2022/11/28 07:26:45;;;;;;;17.30;15.30;;;;;;;6.77;100.00;100800.81;5010274;28;20076;-91
2022/11/28 07:29:16;;;;;;;17.27;15.20;;;;;;;6.82;100.00;100816.41;5013648;28;20143;-92
2022/11/28 07:31:41;;;;;;;17.60;15.70;;;;;;;6.80;100.00;100808.53;5011677;28;20053;-94
2022/11/28 07:34:08;;;;;;;18.23;15.37;;;;;;;6.77;100.00;100806.19;5013915;28;20049;-91
2022/11/28 07:36:33;;;;;;;18.10;16.10;;;;;;;6.81;100.00;100814.75;5013656;28;20029;-92
2022/11/28 07:39:00;;;;;;;20.23;17.03;;;;;;;6.79;100.00;100806.03;5012108;28;20076;-89
2022/11/28 07:41:27;;;;;;;20.67;16.97;;;;;;;6.73;100.00;100802.22;5011407;28;20030;-92
2022/11/28 07:43:58;;;;;;;20.63;17.23;;;;;;;6.84;100.00;100814.34;5013755;28;20033;-90
2022/11/28 07:46:25;;;;;;;18.00;16.10;;;;;;;6.88;100.00;100829.13;5011245;28;20022;-90
2022/11/28 07:48:51;;;;;;;19.23;16.70;;;;;;;6.87;100.00;100831.00;5011655;28;20033;-92
2022/11/28 07:51:20;;;;;;;18.90;16.57;;;;;;;6.87;100.00;100832.84;5009903;28;20497;-93
2022/11/28 07:53:46;;;;;;;18.93;16.10;;;;;;;6.82;100.00;100819.13;5022445;28;20091;-92
2022/11/28 07:56:14;;;;;;;18.07;15.90;;;;;;;6.92;100.00;100844.72;5013098;28;20437;-89
2022/11/28 07:58:41;;;;;;;19.03;16.27;;;;;;;6.90;100.00;100838.69;5017245;28;20029;-89
2022/11/28 08:01:09;;;;;;;19.73;16.70;;;;;;;6.83;100.00;100840.47;5010420;28;20069;-92
2022/11/28 08:03:34;;;;;;;19.70;17.60;;;;;;;6.85;100.00;100835.72;5013268;28;20466;-93
2022/11/28 08:06:01;;;;;;;20.13;17.80;;;;;;;6.89;100.00;100847.78;5013377;28;20033;-91
2022/11/28 08:08:26;;;;;;;20.17;17.67;;;;;;;6.96;100.00;100852.44;5009992;28;20057;-92
2022/11/28 08:10:57;;;;;;;19.90;17.70;;;;;;;6.93;100.00;100850.94;5018732;28;20460;-92
2022/11/28 08:13:22;;;;;;;19.90;17.50;;;;;;;6.92;100.00;100850.13;5010105;28;20030;-92
2022/11/28 08:15:47;;;;;;;20.73;18.53;;;;;;;6.91;100.00;100842.22;5013680;28;21357;-92
2022/11/28 08:18:13;;;;;;;20.83;17.93;;;;;;;6.92;100.00;100844.72;5012029;28;20402;-93
2022/11/28 08:20:38;;;;;;;20.70;18.53;;;;;;;6.86;100.00;100839.25;4995694;28;20025;-93
2022/11/28 08:23:03;;;;;;;20.13;17.97;;;;;;;6.92;100.00;100847.44;5013691;28;20144;-90
2022/11/28 08:25:29;;;;;;;19.83;17.70;;;;;;;6.99;100.00;100857.44;5009690;28;20064;-88
2022/11/28 08:27:54;;;;;;;20.63;17.60;;;;;;;6.91;100.00;100853.84;5012472;28;20092;-93
2022/11/28 08:30:19;;;;;;;21.27;18.97;;;;;;;6.81;100.00;100838.97;5017807;28;20458;-94
2022/11/28 08:32:45;;;;;;;21.50;19.30;;;;;;;6.92;100.00;100842.03;5003585;28;20253;-91
2022/11/28 08:35:10;;;;;;;20.97;18.77;;;;;;;6.81;100.00;100847.88;5002423;28;20486;-90
2022/11/28 08:37:35;;;;;;;22.53;20.17;;;;;;;6.81;100.00;100838.97;5002222;28;20464;-91
2022/11/28 08:40:01;;;;;;;22.00;19.50;;;;;;;6.89;100.00;100858.56;4990569;28;20038;-92
2022/11/28 08:42:27;;;;;;;22.67;19.77;;;;;;;6.82;100.00;100848.75;4988805;28;20100;-90
2022/11/28 08:44:52;;;;;;;22.80;20.43;;;;;;;6.81;100.00;100845.19;5003772;28;20440;-90
2022/11/28 08:47:17;;;;;;;23.20;20.70;;;;;;;6.72;100.00;100838.25;5003752;28;20574;-91
2022/11/28 08:49:43;;;;;;;24.43;20.50;;;;;;;6.85;100.00;100862.66;5003469;28;21036;-91
2022/11/28 08:52:08;;;;;;;22.40;20.00;;;;;;;6.83;100.00;100858.50;5003884;28;20076;-91
2022/11/28 08:54:34;;;;;;;23.33;20.90;;;;;;;6.79;100.00;100855.34;5002118;28;20041;-90
2022/11/28 08:57:00;;;;;;;22.43;20.00;;;;;;;6.86;100.00;100860.81;5002916;28;20113;-90
2022/11/28 08:59:27;;;;;;;23.30;20.80;;;;;;;6.84;100.00;100846.69;5003148;28;20080;-91
2022/11/28 09:01:53;;;;;;;23.87;21.27;;;;;;;6.88;100.00;100859.59;5002232;28;20038;-92
2022/11/28 09:04:19;;;;;;;23.00;20.57;;;;;;;6.89;100.00;100861.25;5003682;28;20494;-90
2022/11/28 09:06:44;;;;;;;25.13;21.00;;;;;;;6.92;100.00;100860.91;5006167;28;20145;-90
2022/11/28 09:09:10;;;;;;;24.37;21.17;;;;;;;6.97;100.00;100862.19;5002921;28;20095;-91
2022/11/28 09:11:36;;;;;;;23.40;20.83;;;;;;;6.95;100.00;100854.31;5002873;28;20037;-91
2022/11/28 09:14:01;;;;;;;23.40;20.70;;;;;;;6.98;100.00;100863.88;5002242;28;20043;-91
2022/11/28 09:16:27;;;;;;;24.97;22.27;;;;;;;6.97;100.00;100862.19;5002015;28;20389;-92
2022/11/28 09:18:53;;;;;;;24.33;21.50;;;;;;;7.04;100.00;100873.88;5002517;28;20273;-91
2022/11/28 09:21:19;;;;;;;24.63;21.43;;;;;;;7.03;100.00;100874.91;5002749;28;20464;-91
2022/11/28 09:23:44;;;;;;;25.00;20.70;;;;;;;7.04;100.00;100884.66;5003667;28;20048;-91
2022/11/28 09:26:12;;;;;;;24.53;20.60;;;;;;;7.06;100.00;100874.53;5002723;28;20041;-89
2022/11/28 09:28:38;;;;;;;24.60;21.37;;;;;;;7.01;100.00;100875.09;5019458;28;20401;-93
2022/11/28 09:31:04;;;;;;;25.20;21.43;;;;;;;7.09;100.00;100876.84;5002837;28;20050;-91
2022/11/28 09:33:30;;;;;;;25.27;20.43;;;;;;;7.10;100.00;100879.34;5002052;28;20077;-92
2022/11/28 09:35:57;;;;;;;24.83;20.77;;;;;;;7.10;100.00;100878.53;5002162;28;20034;-93
2022/11/28 09:38:23;;;;;;;25.13;21.37;;;;;;;7.12;100.00;100881.84;5003395;28;20652;-93
2022/11/28 09:40:48;;;;;;;23.97;20.77;;;;;;;7.11;100.00;100874.78;5001469;28;20072;-92
2022/11/28 09:43:28;;;;;;;25.53;21.23;;;;;;;7.15;100.00;100877.94;5002198;28;20128;-92
2022/11/28 09:45:55;;;;;;;24.63;20.43;;;;;;;7.15;100.00;100876.09;5002166;28;20881;-91
2022/11/28 09:48:33;;;;;;;25.60;20.00;;;;;;;7.19;100.00;100880.06;5002538;28;20040;-90
2022/11/28 09:51:27;;;;;;;23.53;19.37;;;;;;;7.20;100.00;100889.84;5001966;28;20111;-90
2022/11/28 09:54:17;;;;;;;21.87;18.93;;;;;;;7.20;100.00;100889.84;4994641;28;20048;-91
2022/11/28 09:56:47;;;;;;;23.33;19.03;;;;;;;7.23;100.00;100888.63;5001916;28;20100;-93
2022/11/28 09:59:30;;;;;;;23.93;19.87;;;;;;;7.20;100.00;100883.63;5001840;28;20398;-92
2022/11/28 10:02:12;;;;;;;23.03;19.23;;;;;;;7.19;100.00;100871.97;5001841;28;20040;-93
2022/11/28 10:04:59;;;;;;;22.17;18.37;;;;;;;7.34;100.00;100884.59;5001450;28;20034;-92
2022/11/28 10:07:45;;;;;;;21.27;17.90;;;;;;;7.37;100.00;100889.59;5002927;28;20069;-91
2022/11/28 10:10:16;;;;;;;21.53;18.00;;;;;;;7.40;100.00;100890.06;5019835;28;20144;-89
2022/11/28 10:13:15;;;;;;;21.70;18.10;;;;;;;7.44;100.00;100890.53;5002816;28;20678;-91
2022/11/28 10:15:40;;;;;;;22.03;17.60;;;;;;;7.48;100.00;100883.75;4970689;28;20053;-91
2022/11/28 10:18:36;;;;;;;23.03;18.37;;;;;;;7.51;100.00;100887.94;5002192;28;20045;-90
2022/11/28 10:21:17;;;;;;;22.23;16.93;;;;;;;7.52;100.00;100887.72;4999021;28;20046;-90
2022/11/28 10:23:45;;;;;;;20.43;16.57;;;;;;;7.51;100.00;100885.22;5001667;28;20116;-90
2022/11/28 10:26:21;;;;;;;19.47;15.83;;;;;;;7.56;100.00;100885.47;5040730;28;20377;-94
2022/11/28 10:28:50;;;;;;;19.53;15.83;;;;;;;7.58;100.00;100888.81;5007794;28;20192;-92
2022/11/28 10:31:38;;;;;;;22.00;16.67;;;;;;;7.60;100.00;100878.66;5028984;28;20034;-93
2022/11/28 10:34:09;;;;;;;21.33;16.93;;;;;;;7.59;100.00;100877.00;5003902;28;20038;-93
2022/11/28 10:37:10;;;;;;;20.87;17.27;;;;;;;7.69;100.00;100890.19;5002485;28;20070;-91
2022/11/28 10:39:41;;;;;;;21.57;17.00;;;;;;;7.66;100.00;100887.88;5000162;28;20065;-91
2022/11/28 10:42:15;;;;;;;21.27;16.20;;;;;;;7.70;100.00;100886.47;5000799;28;20077;-91
2022/11/28 10:45:15;;;;;;;21.93;18.13;;;;;;;7.71;100.00;100890.81;5003089;28;20166;-93
2022/11/28 10:47:58;;;;;;;23.37;17.97;;;;;;;7.69;100.00;100882.91;4988007;28;20053;-92
2022/11/28 10:51:07;;;;;;;20.77;17.03;;;;;;;7.78;100.00;100889.03;5003509;28;20086;-91
2022/11/28 10:53:45;;;;;;;22.47;17.73;;;;;;;7.71;100.00;100883.56;4970651;28;20353;-91
2022/11/28 10:56:53;;;;;;;22.20;17.83;;;;;;;7.80;100.00;100894.22;4969168;28;20039;-90
2022/11/28 10:59:21;;;;;;;23.90;18.50;;;;;;;7.82;100.00;100897.56;4997769;28;20053;-90
2022/11/28 11:01:48;;;;;;;23.30;18.60;;;;;;;7.82;100.00;100887.63;5003844;28;20174;-93
2022/11/28 11:04:19;;;;;;;24.90;19.73;;;;;;;7.84;100.00;100890.13;5007784;28;20030;-91
2022/11/28 11:07:16;;;;;;;26.40;18.70;;;;;;;7.87;100.00;100893.25;5006155;28;20034;-92
2022/11/28 11:09:42;;;;;;;22.50;17.97;;;;;;;7.87;100.00;100892.44;5006121;28;20033;-93
2022/11/28 11:12:17;;;;;;;24.03;18.87;;;;;;;7.89;100.00;100901.19;5006403;28;20048;-91
2022/11/28 11:14:43;;;;;;;25.20;19.03;;;;;;;7.87;100.00;100895.94;5007624;28;20108;-90
2022/11/28 11:17:24;;;;;;;23.87;19.40;;;;;;;7.93;100.00;100895.19;5006902;28;20056;-91
2022/11/28 11:19:49;;;;;;;24.03;19.33;;;;;;;7.87;100.00;100882.47;5007313;28;20061;-91
2022/11/28 11:22:27;;;;;;;25.07;19.73;;;;;;;7.96;100.00;100898.53;5008295;28;20124;-92
2022/11/28 11:25:11;;;;;;;27.27;20.33;;;;;;;8.02;100.00;100892.34;5006187;28;20033;-90
2022/11/28 11:27:37;;;;;;;26.25;20.65;;;;;;;7.97;100.00;100884.84;5008468;28;20058;-91
2022/11/28 11:30:16;;;;;;;26.67;21.40;;;;;;;7.99;100.00;100884.66;5006347;28;20038;-92
2022/11/28 11:32:47;;;;;;;27.50;20.90;;;;;;;8.05;100.00;100889.25;5005833;28;20474;-90
2022/11/28 11:35:27;;;;;;;28.10;22.33;;;;;;;8.06;100.00;100886.38;5008039;28;20053;-92